sensor_id;sensor_type;location;lat;lon;timestamp;P1;durP1;ratioP1;P2;durP2;ratioP2
75516;SDS011;64097;52.548;13.406;2024-02-16T06:01:42;9.25;;;8.27;;
75516;SDS011;64097;52.548;13.406;2024-02-16T06:04:08;8.45;;;7.65;;
75516;SDS011;64097;52.548;13.406;2024-02-16T06:06:35;8.55;;;7.70;;
75516;SDS011;64097;52.548;13.406;2024-02-16T06:09:01;8.68;;;7.78;;
75516;SDS011;64097;52.548;13.406;2024-02-16T06:11:26;9.95;;;8.95;;
75516;SDS011;64097;52.548;13.406;2024-02-16T06:13:52;8.88;;;7.97;;
75516;SDS011;64097;52.548;13.406;2024-02-16T06:16:18;8.90;;;8.00;;
75516;SDS011;64097;52.548;13.406;2024-02-16T06:18:44;10.38;;;9.30;;
75516;SDS011;64097;52.548;13.406;2024-02-16T06:21:10;8.95;;;8.05;;
75516;SDS011;64097;52.548;13.406;2024-02-16T06:23:35;9.82;;;8.82;;
75516;SDS011;64097;52.548;13.406;2024-02-16T06:26:01;9.50;;;8.60;;
75516;SDS011;64097;52.548;13.406;2024-02-16T06:28:27;9.55;;;8.55;;
75516;SDS011;64097;52.548;13.406;2024-02-16T06:30:52;9.10;;;8.20;;
75516;SDS011;64097;52.548;13.406;2024-02-16T06:33:18;8.85;;;7.95;;
75516;SDS011;64097;52.548;13.406;2024-02-16T06:35:44;8.88;;;7.95;;
75516;SDS011;64097;52.548;13.406;2024-02-16T06:38:11;8.98;;;8.07;;
75516;SDS011;64097;52.548;13.406;2024-02-16T06:40:37;9.10;;;8.20;;
75516;SDS011;64097;52.548;13.406;2024-02-16T06:43:03;9.88;;;8.80;;
75516;SDS011;64097;52.548;13.406;2024-02-16T06:45:30;8.77;;;7.95;;
75516;SDS011;64097;52.548;13.406;2024-02-16T06:47:56;9.52;;;8.52;;
75516;SDS011;64097;52.548;13.406;2024-02-16T06:50:21;9.10;;;7.93;;
75516;SDS011;64097;52.548;13.406;2024-02-16T06:52:47;9.02;;;8.02;;
75516;SDS011;64097;52.548;13.406;2024-02-16T06:55:13;8.77;;;7.93;;
75516;SDS011;64097;52.548;13.406;2024-02-16T06:57:39;9.15;;;8.25;;
75516;SDS011;64097;52.548;13.406;2024-02-16T07:00:04;9.13;;;8.23;;
75516;SDS011;64097;52.548;13.406;2024-02-16T07:02:31;8.80;;;7.90;;
75516;SDS011;64097;52.548;13.406;2024-02-16T07:04:57;9.32;;;8.43;;
75516;SDS011;64097;52.548;13.406;2024-02-16T07:07:23;9.23;;;8.32;;
75516;SDS011;64097;52.548;13.406;2024-02-16T07:09:50;8.65;;;7.60;;
75516;SDS011;64097;52.548;13.406;2024-02-16T07:12:16;10.38;;;8.85;;
75516;SDS011;64097;52.548;13.406;2024-02-16T07:14:41;8.70;;;7.78;;
75516;SDS011;64097;52.548;13.406;2024-02-16T07:17:08;10.85;;;8.55;;
75516;SDS011;64097;52.548;13.406;2024-02-16T07:19:34;10.88;;;8.68;;
75516;SDS011;64097;52.548;13.406;2024-02-16T07:22:01;10.40;;;8.73;;
75516;SDS011;64097;52.548;13.406;2024-02-16T07:24:27;10.82;;;8.75;;
75516;SDS011;64097;52.548;13.406;2024-02-16T07:26:52;9.88;;;8.70;;
75516;SDS011;64097;52.548;13.406;2024-02-16T07:29:18;10.63;;;8.95;;
75516;SDS011;64097;52.548;13.406;2024-02-16T07:31:44;9.98;;;8.85;;
75516;SDS011;64097;52.548;13.406;2024-02-16T07:34:10;10.05;;;8.70;;
75516;SDS011;64097;52.548;13.406;2024-02-16T07:36:39;10.43;;;8.95;;
75516;SDS011;64097;52.548;13.406;2024-02-16T07:39:05;10.80;;;9.70;;
75516;SDS011;64097;52.548;13.406;2024-02-16T07:41:31;11.30;;;9.35;;
75516;SDS011;64097;52.548;13.406;2024-02-16T07:43:57;10.07;;;9.07;;
75516;SDS011;64097;52.548;13.406;2024-02-16T07:46:23;10.10;;;9.07;;
75516;SDS011;64097;52.548;13.406;2024-02-16T07:48:49;9.65;;;8.75;;
75516;SDS011;64097;52.548;13.406;2024-02-16T07:51:15;10.07;;;8.98;;
75516;SDS011;64097;52.548;13.406;2024-02-16T07:53:40;10.27;;;8.85;;
75516;SDS011;64097;52.548;13.406;2024-02-16T07:56:09;10.60;;;9.48;;
75516;SDS011;64097;52.548;13.406;2024-02-16T07:58:35;10.23;;;8.85;;
75516;SDS011;64097;52.548;13.406;2024-02-16T08:01:01;10.73;;;9.07;;
75516;SDS011;64097;52.548;13.406;2024-02-16T08:03:27;9.13;;;8.20;;
75516;SDS011;64097;52.548;13.406;2024-02-16T08:05:54;9.55;;;8.65;;
75516;SDS011;64097;52.548;13.406;2024-02-16T08:08:21;11.35;;;9.55;;
75516;SDS011;64097;52.548;13.406;2024-02-16T08:10:48;9.93;;;8.93;;
75516;SDS011;64097;52.548;13.406;2024-02-16T08:13:13;9.75;;;8.75;;
75516;SDS011;64097;52.548;13.406;2024-02-16T08:15:39;9.60;;;8.70;;
75516;SDS011;64097;52.548;13.406;2024-02-16T08:18:05;10.68;;;9.20;;
75516;SDS011;64097;52.548;13.406;2024-02-16T08:20:31;8.25;;;7.45;;
75516;SDS011;64097;52.548;13.406;2024-02-16T08:22:56;9.40;;;8.15;;
75516;SDS011;64097;52.548;13.406;2024-02-16T08:25:24;8.90;;;8.10;;
75516;SDS011;64097;52.548;13.406;2024-02-16T08:27:49;9.38;;;8.48;;
75516;SDS011;64097;52.548;13.406;2024-02-16T08:30:15;9.32;;;8.43;;
75516;SDS011;64097;52.548;13.406;2024-02-16T08:32:41;8.85;;;8.05;;
75516;SDS011;64097;52.548;13.406;2024-02-16T08:35:07;8.82;;;7.93;;
75516;SDS011;64097;52.548;13.406;2024-02-16T08:39:57;9.20;;;8.30;;
75516;SDS011;64097;52.548;13.406;2024-02-16T08:42:23;9.15;;;8.10;;
75516;SDS011;64097;52.548;13.406;2024-02-16T08:44:49;9.20;;;8.30;;
75516;SDS011;64097;52.548;13.406;2024-02-16T08:47:15;9.23;;;8.32;;
75516;SDS011;64097;52.548;13.406;2024-02-16T08:49:41;8.85;;;8.00;;
75516;SDS011;64097;52.548;13.406;2024-02-16T08:52:07;9.23;;;7.97;;
75516;SDS011;64097;52.548;13.406;2024-02-16T08:54:33;8.70;;;7.80;;
75516;SDS011;64097;52.548;13.406;2024-02-16T08:57:02;9.77;;;8.30;;
75516;SDS011;64097;52.548;13.406;2024-02-16T08:59:28;8.50;;;7.63;;
75516;SDS011;64097;52.548;13.406;2024-02-16T09:01:55;8.38;;;7.53;;
75516;SDS011;64097;52.548;13.406;2024-02-16T09:04:21;9.10;;;7.55;;
75516;SDS011;64097;52.548;13.406;2024-02-16T09:06:46;7.43;;;6.70;;
75516;SDS011;64097;52.548;13.406;2024-02-16T09:09:14;8.25;;;7.40;;
75516;SDS011;64097;52.548;13.406;2024-02-16T09:11:40;8.30;;;7.50;;
75516;SDS011;64097;52.548;13.406;2024-02-16T09:14:06;8.48;;;7.57;;
75516;SDS011;64097;52.548;13.406;2024-02-16T09:16:31;8.48;;;7.57;;
75516;SDS011;64097;52.548;13.406;2024-02-16T09:19:00;9.38;;;7.32;;
75516;SDS011;64097;52.548;13.406;2024-02-16T09:21:26;9.52;;;7.82;;
75516;SDS011;64097;52.548;13.406;2024-02-16T09:23:54;9.73;;;8.48;;
75516;SDS011;64097;52.548;13.406;2024-02-16T09:26:23;9.80;;;8.00;;
75516;SDS011;64097;52.548;13.406;2024-02-16T09:28:51;8.52;;;7.72;;
75516;SDS011;64097;52.548;13.406;2024-02-16T09:31:18;8.00;;;7.20;;
75516;SDS011;64097;52.548;13.406;2024-02-16T09:33:44;8.30;;;7.50;;
75516;SDS011;64097;52.548;13.406;2024-02-16T09:36:09;8.80;;;7.90;;
75516;SDS011;64097;52.548;13.406;2024-02-16T09:38:36;8.23;;;7.13;;
75516;SDS011;64097;52.548;13.406;2024-02-16T09:41:01;7.20;;;6.50;;
75516;SDS011;64097;52.548;13.406;2024-02-16T09:43:28;7.50;;;6.80;;
75516;SDS011;64097;52.548;13.406;2024-02-16T09:45:58;7.82;;;6.93;;
75516;SDS011;64097;52.548;13.406;2024-02-16T09:48:27;8.52;;;7.68;;
75516;SDS011;64097;52.548;13.406;2024-02-16T09:50:53;9.05;;;7.30;;
75516;SDS011;64097;52.548;13.406;2024-02-16T09:53:20;8.10;;;7.15;;
75516;SDS011;64097;52.548;13.406;2024-02-16T09:55:52;7.18;;;6.47;;
75516;SDS011;64097;52.548;13.406;2024-02-16T09:58:18;6.95;;;6.25;;
75516;SDS011;64097;52.548;13.406;2024-02-16T10:00:48;6.40;;;5.80;;
75516;SDS011;64097;52.548;13.406;2024-02-16T10:03:27;6.55;;;5.93;;
75516;SDS011;64097;52.548;13.406;2024-02-16T10:06:04;6.18;;;5.57;;
75516;SDS011;64097;52.548;13.406;2024-02-16T10:08:31;6.15;;;5.32;;
75516;SDS011;64097;52.548;13.406;2024-02-16T10:11:02;6.22;;;5.10;;
75516;SDS011;64097;52.548;13.406;2024-02-16T10:13:29;5.90;;;5.30;;
75516;SDS011;64097;52.548;13.406;2024-02-16T10:16:09;5.57;;;5.07;;
75516;SDS011;64097;52.548;13.406;2024-02-16T10:18:36;4.82;;;4.43;;
75516;SDS011;64097;52.548;13.406;2024-02-16T10:21:05;4.85;;;4.35;;
75516;SDS011;64097;52.548;13.406;2024-02-16T10:23:31;4.60;;;4.20;;
75516;SDS011;64097;52.548;13.406;2024-02-16T10:25:57;4.43;;;4.03;;
75516;SDS011;64097;52.548;13.406;2024-02-16T10:28:24;4.40;;;4.00;;
75516;SDS011;64097;52.548;13.406;2024-02-16T10:30:59;5.60;;;4.65;;
75516;SDS011;64097;52.548;13.406;2024-02-16T10:33:28;4.32;;;3.92;;
75516;SDS011;64097;52.548;13.406;2024-02-16T10:35:56;4.75;;;4.18;;
75516;SDS011;64097;52.548;13.406;2024-02-16T10:38:24;5.18;;;4.68;;
75516;SDS011;64097;52.548;13.406;2024-02-16T10:40:51;5.00;;;4.07;;
75516;SDS011;64097;52.548;13.406;2024-02-16T10:43:21;4.70;;;4.30;;
75516;SDS011;64097;52.548;13.406;2024-02-16T10:45:47;5.43;;;4.25;;
75516;SDS011;64097;52.548;13.406;2024-02-16T10:48:17;4.88;;;3.85;;
75516;SDS011;64097;52.548;13.406;2024-02-16T10:50:43;4.38;;;3.97;;
75516;SDS011;64097;52.548;13.406;2024-02-16T10:55:35;4.60;;;3.67;;
75516;SDS011;64097;52.548;13.406;2024-02-16T10:58:01;4.60;;;3.65;;
75516;SDS011;64097;52.548;13.406;2024-02-16T11:00:27;4.50;;;4.10;;
75516;SDS011;64097;52.548;13.406;2024-02-16T11:05:34;4.10;;;3.70;;
75516;SDS011;64097;52.548;13.406;2024-02-16T11:08:04;4.00;;;3.70;;
75516;SDS011;64097;52.548;13.406;2024-02-16T11:10:30;4.40;;;4.00;;
75516;SDS011;64097;52.548;13.406;2024-02-16T11:13:02;4.35;;;3.90;;
75516;SDS011;64097;52.548;13.406;2024-02-16T11:15:33;4.30;;;3.90;;
75516;SDS011;64097;52.548;13.406;2024-02-16T11:18:01;4.25;;;3.85;;
75516;SDS011;64097;52.548;13.406;2024-02-16T11:20:27;4.50;;;4.10;;
75516;SDS011;64097;52.548;13.406;2024-02-16T11:22:53;4.90;;;4.40;;
75516;SDS011;64097;52.548;13.406;2024-02-16T11:25:40;4.95;;;4.13;;
75516;SDS011;64097;52.548;13.406;2024-02-16T11:28:14;4.47;;;4.00;;
75516;SDS011;64097;52.548;13.406;2024-02-16T11:30:41;4.97;;;4.47;;
75516;SDS011;64097;52.548;13.406;2024-02-16T11:33:10;4.40;;;3.97;;
75516;SDS011;64097;52.548;13.406;2024-02-16T11:35:36;5.05;;;4.03;;
75516;SDS011;64097;52.548;13.406;2024-02-16T11:38:01;5.82;;;4.35;;
75516;SDS011;64097;52.548;13.406;2024-02-16T11:40:28;4.25;;;3.85;;
75516;SDS011;64097;52.548;13.406;2024-02-16T11:42:59;4.22;;;3.80;;
75516;SDS011;64097;52.548;13.406;2024-02-16T11:45:25;4.78;;;4.38;;
75516;SDS011;64097;52.548;13.406;2024-02-16T11:48:02;4.72;;;4.20;;
75516;SDS011;64097;52.548;13.406;2024-02-16T11:50:29;4.47;;;3.90;;
75516;SDS011;64097;52.548;13.406;2024-02-16T11:52:54;4.63;;;4.10;;
75516;SDS011;64097;52.548;13.406;2024-02-16T11:55:20;6.28;;;4.95;;
75516;SDS011;64097;52.548;13.406;2024-02-16T11:57:46;5.13;;;4.60;;
75516;SDS011;64097;52.548;13.406;2024-02-16T12:00:15;4.28;;;3.88;;
75516;SDS011;64097;52.548;13.406;2024-02-16T12:02:41;4.53;;;4.13;;
75516;SDS011;64097;52.548;13.406;2024-02-16T12:05:07;3.90;;;3.60;;
75516;SDS011;64097;52.548;13.406;2024-02-16T12:07:36;4.20;;;3.80;;
75516;SDS011;64097;52.548;13.406;2024-02-16T12:10:05;4.45;;;3.50;;
75516;SDS011;64097;52.548;13.406;2024-02-16T12:12:32;4.53;;;4.13;;
75516;SDS011;64097;52.548;13.406;2024-02-16T12:14:58;3.70;;;3.40;;
75516;SDS011;64097;52.548;13.406;2024-02-16T12:17:24;3.75;;;3.40;;
75516;SDS011;64097;52.548;13.406;2024-02-16T12:19:50;5.15;;;3.40;;
75516;SDS011;64097;52.548;13.406;2024-02-16T12:22:17;3.20;;;2.90;;
75516;SDS011;64097;52.548;13.406;2024-02-16T12:24:47;4.50;;;3.90;;
75516;SDS011;64097;52.548;13.406;2024-02-16T12:27:15;3.67;;;3.38;;
75516;SDS011;64097;52.548;13.406;2024-02-16T12:29:40;3.58;;;3.22;;
75516;SDS011;64097;52.548;13.406;2024-02-16T12:32:06;4.47;;;3.53;;
75516;SDS011;64097;52.548;13.406;2024-02-16T12:34:34;3.17;;;2.88;;
75516;SDS011;64097;52.548;13.406;2024-02-16T12:37:06;3.40;;;3.10;;
75516;SDS011;64097;52.548;13.406;2024-02-16T12:39:36;4.78;;;3.53;;
75516;SDS011;64097;52.548;13.406;2024-02-16T12:42:02;3.72;;;3.10;;
75516;SDS011;64097;52.548;13.406;2024-02-16T12:44:28;2.90;;;2.60;;
75516;SDS011;64097;52.548;13.406;2024-02-16T12:46:54;3.00;;;2.70;;
75516;SDS011;64097;52.548;13.406;2024-02-16T12:49:19;2.97;;;2.40;;
75516;SDS011;64097;52.548;13.406;2024-02-16T12:51:47;3.25;;;2.95;;
75516;SDS011;64097;52.548;13.406;2024-02-16T12:54:17;3.42;;;3.10;;
75516;SDS011;64097;52.548;13.406;2024-02-16T12:56:47;2.70;;;2.50;;
75516;SDS011;64097;52.548;13.406;2024-02-16T12:59:14;3.15;;;2.85;;
75516;SDS011;64097;52.548;13.406;2024-02-16T13:01:40;3.13;;;2.78;;
75516;SDS011;64097;52.548;13.406;2024-02-16T13:04:07;4.05;;;2.80;;
75516;SDS011;64097;52.548;13.406;2024-02-16T13:06:33;3.20;;;2.90;;
75516;SDS011;64097;52.548;13.406;2024-02-16T13:08:59;3.15;;;2.70;;
75516;SDS011;64097;52.548;13.406;2024-02-16T13:11:25;2.75;;;2.50;;
75516;SDS011;64097;52.548;13.406;2024-02-16T13:13:50;3.53;;;2.80;;
75516;SDS011;64097;52.548;13.406;2024-02-16T13:16:17;2.67;;;2.47;;
75516;SDS011;64097;52.548;13.406;2024-02-16T13:18:43;2.90;;;2.60;;
75516;SDS011;64097;52.548;13.406;2024-02-16T13:21:09;2.65;;;2.45;;
75516;SDS011;64097;52.548;13.406;2024-02-16T13:23:34;2.88;;;2.65;;
75516;SDS011;64097;52.548;13.406;2024-02-16T13:26:01;2.53;;;2.33;;
75516;SDS011;64097;52.548;13.406;2024-02-16T13:28:26;2.60;;;2.40;;
75516;SDS011;64097;52.548;13.406;2024-02-16T13:30:52;2.53;;;2.30;;
75516;SDS011;64097;52.548;13.406;2024-02-16T13:33:18;2.47;;;2.25;;
75516;SDS011;64097;52.548;13.406;2024-02-16T13:35:43;2.25;;;2.00;;
75516;SDS011;64097;52.548;13.406;2024-02-16T13:38:09;2.40;;;2.10;;
75516;SDS011;64097;52.548;13.406;2024-02-16T13:40:35;2.58;;;2.17;;
75516;SDS011;64097;52.548;13.406;2024-02-16T13:43:01;1.90;;;1.80;;
75516;SDS011;64097;52.548;13.406;2024-02-16T13:45:28;2.83;;;1.85;;
75516;SDS011;64097;52.548;13.406;2024-02-16T13:48:10;2.20;;;2.00;;
75516;SDS011;64097;52.548;13.406;2024-02-16T13:50:36;2.47;;;2.00;;
75516;SDS011;64097;52.548;13.406;2024-02-16T13:53:02;2.10;;;1.90;;
75516;SDS011;64097;52.548;13.406;2024-02-16T13:55:28;2.20;;;1.70;;
75516;SDS011;64097;52.548;13.406;2024-02-16T13:57:53;2.10;;;1.80;;
